Time;durP1;ratioP1;P1;durP2;ratioP2;P2;SDS_P1;SDS_P2;PMS_P1;PMS_P2;Temp;Humidity;BMP_temperature;BMP_pressure;BME280_temperature;BME280_humidity;BME280_pressure;Samples;Min_cycle;Max_cycle;Signal;HPM_P1;HPM_P2
2023/10/26 00:01:27;;;;;;;42.90;19.02;;;10.00;99.90;;;;;;5051316;28;20082;-51
2023/10/26 00:03:52;;;;;;;40.08;19.48;;;10.40;99.90;;;;;;5051835;28;20036;-51
2023/10/26 00:06:18;;;;;;;45.88;34.17;;;10.60;99.90;;;;;;5017257;28;20144;-50
2023/10/26 00:08:44;;;;;;;43.90;32.33;;;10.40;99.90;;;;;;5051381;28;20052;-53
2023/10/26 00:11:09;;;;;;;35.83;17.90;;;10.10;99.90;;;;;;5051474;28;20033;-51
2023/10/26 00:13:35;;;;;;;44.70;33.00;;;10.10;99.90;;;;;;5050645;28;20040;-51
2023/10/26 00:16:01;;;;;;;40.70;18.65;;;10.40;99.90;;;;;;5032616;28;20052;-51
2023/10/26 00:18:26;;;;;;;41.45;18.65;;;10.00;99.90;;;;;;5017200;28;20507;-51
2023/10/26 00:20:57;;;;;;;41.33;18.23;;;10.50;99.90;;;;;;5051623;28;20047;-52
2023/10/26 00:23:22;;;;;;;38.22;17.85;;;10.40;99.90;;;;;;5033652;28;20052;-50
2023/10/26 00:25:48;;;;;;;45.88;20.00;;;9.90;99.90;;;;;;5051469;28;20044;-50
2023/10/26 00:28:14;;;;;;;41.05;18.77;;;9.90;99.90;;;;;;5051722;28;20526;-50
2023/10/26 00:30:39;;;;;;;44.72;19.83;;;10.10;99.90;;;;;;5033479;28;20029;-52
2023/10/26 00:33:05;;;;;;;38.83;19.70;;;10.40;99.90;;;;;;5051491;28;20179;-50
2023/10/26 00:35:31;;;;;;;50.78;19.50;;;10.30;99.90;;;;;;5051147;28;20045;-51
2023/10/26 00:37:56;;;;;;;46.85;19.85;;;10.10;99.90;;;;;;5049800;28;20348;-52
2023/10/26 00:40:22;;;;;;;40.90;19.98;;;10.20;99.90;;;;;;5032929;28;20496;-51
2023/10/26 00:42:48;;;;;;;43.30;19.98;;;10.10;99.90;;;;;;5050565;28;20086;-51
2023/10/26 00:45:13;;;;;;;51.50;34.30;;;9.90;99.90;;;;;;5051030;28;20037;-51
2023/10/26 00:47:39;;;;;;;45.00;20.02;;;10.50;99.90;;;;;;5051142;28;20036;-49
2023/10/26 00:50:06;;;;;;;52.00;35.67;;;10.10;99.90;;;;;;5050838;28;20499;-50
2023/10/26 00:52:35;;;;;;;43.15;19.58;;;10.40;99.90;;;;;;5050789;28;20392;-51
2023/10/26 00:55:03;;;;;;;38.83;18.27;;;10.00;99.90;;;;;;5050507;28;20095;-50
2023/10/26 00:57:30;;;;;;;41.17;19.55;;;10.10;99.90;;;;;;5050712;28;20055;-50
2023/10/26 00:59:57;;;;;;;52.83;35.00;;;10.00;99.90;;;;;;5049673;28;20577;-51
2023/10/26 01:02:24;;;;;;;44.83;19.27;;;10.40;99.90;;;;;;5050628;28;20119;-50
2023/10/26 01:04:50;;;;;;;39.63;18.85;;;9.90;99.90;;;;;;5050931;28;20052;-49
2023/10/26 01:07:16;;;;;;;42.03;19.55;;;9.80;99.90;;;;;;5050153;28;20033;-52
2023/10/26 01:09:42;;;;;;;45.10;20.00;;;9.90;99.90;;;;;;5050686;28;20090;-52
2023/10/26 01:12:08;;;;;;;46.15;19.85;;;10.20;99.90;;;;;;5032275;28;20048;-48
2023/10/26 01:14:34;;;;;;;49.50;21.58;;;10.40;99.90;;;;;;5047869;28;20045;-50
2023/10/26 01:17:00;;;;;;;54.50;36.88;;;9.70;99.90;;;;;;5049779;28;20365;-52
2023/10/26 01:19:43;;;;;;;45.72;20.63;;;10.00;99.90;;;;;;5049837;28;20052;-51
2023/10/26 01:22:10;;;;;;;43.97;19.90;;;9.80;99.90;;;;;;5050185;28;20048;-52
2023/10/26 01:24:36;;;;;;;51.08;20.85;;;9.70;99.90;;;;;;5049169;28;20069;-51
2023/10/26 01:27:02;;;;;;;41.95;19.55;;;9.90;99.90;;;;;;5050091;28;20033;-52
2023/10/26 01:29:28;;;;;;;47.60;20.33;;;10.10;99.90;;;;;;5049906;28;20047;-51
2023/10/26 01:31:54;;;;;;;42.38;19.77;;;10.30;99.90;;;;;;5050568;28;20484;-52
2023/10/26 01:34:20;;;;;;;47.55;20.50;;;10.20;99.90;;;;;;5049941;28;20049;-52
2023/10/26 01:36:45;;;;;;;54.10;36.90;;;9.80;99.90;;;;;;5051884;28;20508;-51
2023/10/26 01:39:13;;;;;;;47.97;20.25;;;10.00;99.90;;;;;;5053378;28;20045;-51
2023/10/26 01:41:39;;;;;;;56.78;36.88;;;9.90;99.90;;;;;;5054059;28;20130;-53
2023/10/26 01:44:04;;;;;;;44.53;20.33;;;10.30;99.90;;;;;;5053673;28;20080;-50
2023/10/26 01:46:30;;;;;;;48.15;20.30;;;9.80;99.90;;;;;;5054200;28;20126;-51
2023/10/26 01:48:56;;;;;;;47.10;21.20;;;9.80;99.90;;;;;;5053546;28;20073;-51
2023/10/26 01:51:21;;;;;;;56.85;37.08;;;10.10;99.90;;;;;;5053525;28;20044;-52
2023/10/26 01:53:47;;;;;;;47.75;20.83;;;9.80;99.90;;;;;;5053593;28;20043;-50
2023/10/26 01:56:13;;;;;;;47.33;20.90;;;9.80;99.90;;;;;;5053921;28;20040;-52
2023/10/26 01:58:38;;;;;;;50.13;21.10;;;10.30;99.90;;;;;;5053665;28;20041;-51
2023/10/26 02:01:05;;;;;;;55.95;37.22;;;10.30;99.90;;;;;;5035684;28;20045;-51
2023/10/26 02:03:31;;;;;;;47.60;20.77;;;10.20;99.90;;;;;;5033583;28;20124;-48
2023/10/26 02:05:56;;;;;;;56.80;38.03;;;10.20;99.90;;;;;;5053897;28;20087;-52
2023/10/26 02:08:22;;;;;;;48.22;20.27;;;10.30;99.90;;;;;;5053606;28;20090;-50
2023/10/26 02:10:48;;;;;;;46.53;21.30;;;10.20;99.90;;;;;;5053888;28;20029;-52
2023/10/26 02:13:13;;;;;;;51.53;20.67;;;10.20;99.90;;;;;;5053736;28;20036;-50
2023/10/26 02:15:39;;;;;;;50.85;20.70;;;10.20;99.90;;;;;;5053831;28;20037;-51
2023/10/26 02:18:05;;;;;;;47.58;22.35;;;10.10;99.90;;;;;;5052544;28;20045;-51
2023/10/26 02:20:30;;;;;;;45.97;21.30;;;9.60;99.90;;;;;;5035536;28;20045;-51
2023/10/26 02:22:56;;;;;;;47.95;21.73;;;9.60;99.90;;;;;;5053999;28;20045;-51
2023/10/26 02:25:22;;;;;;;49.65;22.02;;;10.20;99.90;;;;;;5053635;28;20048;-51
2023/10/26 02:27:47;;;;;;;48.65;22.08;;;9.60;99.90;;;;;;5052744;28;20032;-50
2023/10/26 02:30:13;;;;;;;48.75;22.08;;;10.20;99.90;;;;;;5052888;28;20037;-52
2023/10/26 02:32:40;;;;;;;48.13;20.92;;;9.60;99.90;;;;;;5053060;28;20044;-50
2023/10/26 02:35:06;;;;;;;46.33;22.05;;;9.60;99.90;;;;;;5053034;28;20045;-50
2023/10/26 02:37:38;;;;;;;55.33;38.60;;;9.70;99.90;;;;;;5053127;28;20044;-51
2023/10/26 02:40:05;;;;;;;40.65;20.60;;;10.10;99.90;;;;;;5051342;28;20060;-51
2023/10/26 02:42:31;;;;;;;44.05;20.80;;;10.10;99.90;;;;;;5052354;28;20049;-50
2023/10/26 02:44:57;;;;;;;43.13;20.25;;;9.70;99.90;;;;;;5053115;28;20045;-53
2023/10/26 02:47:23;;;;;;;49.58;20.85;;;9.90;99.90;;;;;;5052136;28;20037;-53
2023/10/26 02:49:50;;;;;;;46.80;22.30;;;10.10;99.90;;;;;;5052613;28;20053;-50
2023/10/26 02:52:15;;;;;;;58.28;38.10;;;10.10;99.90;;;;;;5035083;28;20063;-52
2023/10/26 02:54:42;;;;;;;45.42;19.63;;;9.60;99.90;;;;;;5053246;28;20037;-52
2023/10/26 02:57:08;;;;;;;49.90;21.38;;;9.90;99.90;;;;;;5052944;28;20036;-52
2023/10/26 02:59:34;;;;;;;50.47;21.33;;;10.20;99.90;;;;;;5052430;28;20033;-50
2023/10/26 03:01:59;;;;;;;51.67;21.48;;;9.90;99.90;;;;;;5053025;28;20040;-48
2023/10/26 03:04:25;;;;;;;47.15;20.30;;;10.10;99.90;;;;;;5052911;28;20539;-52
2023/10/26 03:06:51;;;;;;;45.03;20.63;;;9.80;99.90;;;;;;5052403;28;20091;-51
2023/10/26 03:09:17;;;;;;;46.67;21.08;;;9.60;99.90;;;;;;5052151;28;20033;-50
2023/10/26 03:11:43;;;;;;;45.83;20.88;;;9.50;99.90;;;;;;5051766;28;20116;-52
2023/10/26 03:14:08;;;;;;;45.25;19.83;;;10.20;99.90;;;;;;5049813;28;20168;-51
2023/10/26 03:16:34;;;;;;;45.00;20.60;;;10.00;99.90;;;;;;5051846;28;20025;-51
2023/10/26 03:19:00;;;;;;;51.30;20.88;;;9.60;99.90;;;;;;5051665;28;20102;-52
2023/10/26 03:21:27;;;;;;;53.47;36.40;;;9.60;99.90;;;;;;5052295;28;20029;-52
2023/10/26 03:23:53;;;;;;;55.50;37.33;;;9.60;99.90;;;;;;5052828;28;20037;-50
2023/10/26 03:26:19;;;;;;;43.70;21.10;;;10.10;99.90;;;;;;5034515;28;20056;-50
2023/10/26 03:28:46;;;;;;;51.83;38.05;;;10.10;99.90;;;;;;5052889;28;20400;-51
2023/10/26 03:31:12;;;;;;;58.38;37.80;;;10.10;99.90;;;;;;5052136;28;20082;-52
2023/10/26 03:33:39;;;;;;;49.28;21.30;;;10.20;99.90;;;;;;5051727;28;20395;-50
2023/10/26 03:36:11;;;;;;;45.05;20.58;;;9.90;99.90;;;;;;5051996;28;20037;-51
2023/10/26 03:38:37;;;;;;;46.90;21.08;;;9.70;99.90;;;;;;5035884;28;20043;-50
2023/10/26 03:41:04;;;;;;;45.85;21.42;;;9.60;99.90;;;;;;5052330;28;20048;-51
2023/10/26 03:43:29;;;;;;;51.28;22.65;;;9.60;99.90;;;;;;5033770;28;20134;-51
2023/10/26 03:45:55;;;;;;;50.53;21.73;;;9.50;99.90;;;;;;5052132;28;20041;-52
2023/10/26 03:48:21;;;;;;;49.90;21.60;;;9.90;99.90;;;;;;5051428;28;20637;-52
2023/10/26 03:50:46;;;;;;;46.42;21.05;;;9.40;99.90;;;;;;5051967;28;20498;-51
2023/10/26 03:53:12;;;;;;;46.28;22.15;;;9.60;99.90;;;;;;5034107;28;20053;-49
2023/10/26 03:55:38;;;;;;;43.85;21.10;;;9.90;99.90;;;;;;5050873;28;20040;-52
2023/10/26 03:58:03;;;;;;;48.97;21.42;;;9.50;99.90;;;;;;5051069;28;20037;-51
2023/10/26 04:00:29;;;;;;;47.47;22.15;;;9.70;99.90;;;;;;5051846;28;20033;-50
2023/10/26 04:02:55;;;;;;;46.67;21.67;;;9.60;99.90;;;;;;5051478;28;20041;-49
2023/10/26 04:05:20;;;;;;;46.28;19.75;;;9.30;99.90;;;;;;5051853;28;20404;-51
2023/10/26 04:07:46;;;;;;;48.55;21.20;;;9.80;99.90;;;;;;5050865;28;20738;-52
2023/10/26 04:10:12;;;;;;;58.13;37.78;;;9.50;99.90;;;;;;5051758;28;20037;-52
2023/10/26 04:12:38;;;;;;;42.80;20.27;;;9.60;99.90;;;;;;5050857;28;20044;-51
2023/10/26 04:15:04;;;;;;;39.92;20.08;;;9.30;99.90;;;;;;5050863;28;20040;-48
2023/10/26 04:17:30;;;;;;;45.42;20.90;;;9.70;99.90;;;;;;5051192;28;20048;-51
2023/10/26 04:19:57;;;;;;;42.58;18.98;;;9.40;99.90;;;;;;5051240;28;20033;-52
2023/10/26 04:22:23;;;;;;;42.97;18.45;;;9.50;99.90;;;;;;5050848;28;20075;-49
2023/10/26 04:24:49;;;;;;;37.85;18.95;;;9.50;99.90;;;;;;5051264;28;20639;-51
2023/10/26 04:27:15;;;;;;;38.88;19.05;;;9.20;99.90;;;;;;5051473;28;20048;-51
2023/10/26 04:29:40;;;;;;;48.92;33.22;;;8.90;99.90;;;;;;5050963;28;20147;-50
2023/10/26 04:32:07;;;;;;;36.75;17.77;;;9.10;99.90;;;;;;5050478;28;20040;-51
2023/10/26 04:34:33;;;;;;;43.63;18.83;;;9.40;99.90;;;;;;5051304;28;20098;-53
2023/10/26 04:36:59;;;;;;;42.60;20.20;;;9.40;99.90;;;;;;5051017;28;20037;-49
2023/10/26 04:39:24;;;;;;;53.97;19.75;;;8.90;99.90;;;;;;5051171;28;20040;-51
2023/10/26 04:41:50;;;;;;;53.78;20.90;;;8.90;99.90;;;;;;5033478;28;20033;-52
2023/10/26 04:44:18;;;;;;;72.13;20.75;;;8.80;99.90;;;;;;5050882;28;20480;-49
2023/10/26 04:46:44;;;;;;;166.35;43.60;;;9.30;99.90;;;;;;5050560;28;20037;-52
2023/10/26 04:49:10;;;;;;;80.47;21.65;;;9.40;99.90;;;;;;5050349;28;20056;-50
2023/10/26 04:51:35;;;;;;;117.18;22.10;;;9.00;99.90;;;;;;5050872;28;20045;-49
2023/10/26 04:54:01;;;;;;;366.35;30.67;;;9.20;99.90;;;;;;5050718;28;20442;-51
2023/10/26 04:56:27;;;;;;;105.80;22.75;;;9.10;99.90;;;;;;5051176;28;20055;-47
2023/10/26 04:58:53;;;;;;;143.45;24.25;;;8.90;99.90;;;;;;5050951;28;20400;-53
2023/10/26 05:01:18;;;;;;;255.95;47.90;;;9.20;99.90;;;;;;5050552;28;20052;-52
2023/10/26 05:03:44;;;;;;;155.00;23.67;;;8.90;99.90;;;;;;5051278;28;20048;-51
2023/10/26 05:06:09;;;;;;;165.95;24.80;;;9.40;99.90;;;;;;5050403;28;20475;-52
2023/10/26 05:08:35;;;;;;;99.85;22.20;;;9.40;99.90;;;;;;5033215;28;20033;-50
2023/10/26 05:11:01;;;;;;;118.72;23.50;;;9.40;99.90;;;;;;5050100;28;20044;-47
2023/10/26 05:13:28;;;;;;;110.05;23.80;;;9.20;99.90;;;;;;5050021;28;20052;-51
2023/10/26 05:15:53;;;;;;;177.75;24.83;;;9.20;99.90;;;;;;5050768;28;20064;-50
2023/10/26 05:18:19;;;;;;;89.00;22.58;;;8.80;99.90;;;;;;5050717;28;20049;-50
2023/10/26 05:20:49;;;;;;;155.07;24.42;;;9.40;99.90;;;;;;5050479;28;20380;-52
2023/10/26 05:23:15;;;;;;;251.25;25.90;;;8.80;99.90;;;;;;5050875;28;20099;-51
2023/10/26 05:25:40;;;;;;;90.90;23.25;;;8.90;99.90;;;;;;5050640;28;20064;-51
2023/10/26 05:28:06;;;;;;;61.05;21.63;;;8.80;99.90;;;;;;5050824;28;20037;-50
2023/10/26 05:30:32;;;;;;;131.38;23.17;;;9.30;99.90;;;;;;5050518;28;20464;-51
2023/10/26 05:32:58;;;;;;;132.80;23.88;;;9.40;99.90;;;;;;5050592;28;20041;-52
2023/10/26 05:35:24;;;;;;;147.50;25.23;;;9.40;99.90;;;;;;5049874;28;20037;-51
2023/10/26 05:37:49;;;;;;;116.82;24.15;;;9.40;99.90;;;;;;5050175;28;20247;-50
2023/10/26 05:40:15;;;;;;;69.45;22.10;;;9.40;99.90;;;;;;5050378;28;20045;-50
2023/10/26 05:42:41;;;;;;;92.82;23.55;;;9.20;99.90;;;;;;5050117;28;20037;-50
2023/10/26 05:45:07;;;;;;;154.85;41.53;;;8.80;99.90;;;;;;5032924;28;20040;-51
2023/10/26 05:47:33;;;;;;;119.88;23.67;;;9.40;99.90;;;;;;5050597;28;20460;-49
2023/10/26 05:49:58;;;;;;;98.35;23.55;;;9.40;99.90;;;;;;5050251;28;20087;-49
2023/10/26 05:52:24;;;;;;;90.95;23.17;;;9.40;99.90;;;;;;5050276;28;20033;-51
2023/10/26 05:54:51;;;;;;;196.20;48.00;;;8.80;99.90;;;;;;5050267;28;20377;-50
2023/10/26 05:57:17;;;;;;;63.45;21.77;;;8.90;99.90;;;;;;5050554;28;20037;-51
2023/10/26 05:59:42;;;;;;;47.05;20.52;;;9.10;99.90;;;;;;5050380;28;20492;-51
2023/10/26 06:02:08;;;;;;;74.25;21.17;;;9.30;99.90;;;;;;5050070;28;20445;-51
2023/10/26 06:04:34;;;;;;;67.45;22.10;;;9.00;99.90;;;;;;5049834;28;20124;-50
2023/10/26 06:06:59;;;;;;;49.95;20.38;;;8.90;99.90;;;;;;5050031;28;20373;-51
2023/10/26 06:09:25;;;;;;;55.28;20.88;;;8.70;99.90;;;;;;5049951;28;20073;-50
2023/10/26 06:11:51;;;;;;;53.72;20.13;;;9.40;99.90;;;;;;5050291;28;20112;-52
2023/10/26 06:14:17;;;;;;;50.33;19.45;;;8.80;99.90;;;;;;5048404;28;20040;-50
2023/10/26 06:16:43;;;;;;;60.63;20.40;;;8.70;99.90;;;;;;5049231;28;20045;-49
2023/10/26 06:19:10;;;;;;;103.32;22.02;;;8.90;99.90;;;;;;5050043;28;20112;-50
2023/10/26 06:21:38;;;;;;;58.35;20.52;;;9.20;99.90;;;;;;5050115;28;20396;-51
2023/10/26 06:24:04;;;;;;;56.70;21.45;;;9.10;99.90;;;;;;5053606;28;20033;-50
2023/10/26 06:26:29;;;;;;;169.30;41.28;;;9.00;99.90;;;;;;5053559;28;20056;-49
2023/10/26 06:28:55;;;;;;;51.85;20.05;;;8.60;99.90;;;;;;5052823;28;20171;-50
2023/10/26 06:31:21;;;;;;;152.77;44.88;;;9.10;99.90;;;;;;5035421;28;20036;-51
2023/10/26 06:33:47;;;;;;;100.35;40.35;;;8.90;99.90;;;;;;5052649;28;20103;-51
2023/10/26 06:36:13;;;;;;;93.82;19.70;;;9.10;99.90;;;;;;5035986;28;20076;-50
2023/10/26 06:38:39;;;;;;;179.73;25.85;;;8.50;99.90;;;;;;5051442;28;20476;-52
2023/10/26 06:41:06;;;;;;;77.30;21.63;;;8.90;99.90;;;;;;5035337;28;20043;-52
2023/10/26 06:43:32;;;;;;;85.45;21.55;;;9.00;99.90;;;;;;5034987;28;20475;-50
2023/10/26 06:46:00;;;;;;;170.52;23.40;;;8.80;99.90;;;;;;5053447;28;20037;-51
2023/10/26 06:48:25;;;;;;;225.85;23.70;;;9.00;99.90;;;;;;5034991;28;20052;-51
2023/10/26 06:50:57;;;;;;;141.05;20.92;;;8.90;99.90;;;;;;5053193;28;20037;-49
2023/10/26 06:53:24;;;;;;;138.75;20.85;;;8.40;99.90;;;;;;5053405;28;20045;-48
2023/10/26 06:55:51;;;;;;;99.60;22.83;;;8.90;99.90;;;;;;5052884;28;20064;-51
2023/10/26 06:58:16;;;;;;;105.03;21.42;;;8.90;99.90;;;;;;5035492;28;20215;-52
2023/10/26 07:00:42;;;;;;;124.25;21.70;;;8.40;99.90;;;;;;5053289;28;20559;-53
2023/10/26 07:03:08;;;;;;;169.02;25.25;;;8.40;99.90;;;;;;5053370;28;20288;-50
2023/10/26 07:05:33;;;;;;;85.88;19.85;;;8.40;99.90;;;;;;5053347;28;20037;-51
2023/10/26 07:07:59;;;;;;;110.00;22.30;;;8.60;99.90;;;;;;5052959;28;20116;-52
2023/10/26 07:10:28;;;;;;;122.05;22.17;;;8.90;99.90;;;;;;5034096;28;20037;-54
2023/10/26 07:12:54;;;;;;;144.02;22.40;;;9.00;99.90;;;;;;5052027;28;20616;-53
2023/10/26 07:15:20;;;;;;;217.63;42.97;;;8.90;99.90;;;;;;5052588;28;20168;-54
2023/10/26 07:17:45;;;;;;;184.95;40.85;;;8.90;99.90;;;;;;5045028;28;20041;-50
2023/10/26 07:20:14;;;;;;;59.67;19.25;;;9.10;99.90;;;;;;5047331;28;20373;-54
2023/10/26 07:22:42;;;;;;;97.53;20.88;;;9.10;99.90;;;;;;5048424;28;20080;-53
2023/10/26 07:25:08;;;;;;;80.55;20.40;;;9.00;99.90;;;;;;5048434;28;20041;-54
2023/10/26 07:27:34;;;;;;;104.80;22.05;;;9.10;99.90;;;;;;5030121;28;20051;-53
2023/10/26 07:30:01;;;;;;;149.07;41.80;;;9.10;99.90;;;;;;5046482;28;20124;-55
2023/10/26 07:32:26;;;;;;;109.63;22.30;;;9.10;99.90;;;;;;5047754;28;20475;-53
2023/10/26 07:34:54;;;;;;;197.55;25.25;;;9.10;99.90;;;;;;5047406;28;20095;-53
2023/10/26 07:37:19;;;;;;;149.98;42.13;;;8.70;99.90;;;;;;5048322;28;20743;-52
2023/10/26 07:39:45;;;;;;;85.78;20.48;;;9.00;99.90;;;;;;5046878;28;20048;-53
2023/10/26 07:42:11;;;;;;;74.88;21.35;;;9.20;99.90;;;;;;5047949;28;20036;-54
2023/10/26 07:44:37;;;;;;;123.53;23.23;;;9.20;99.90;;;;;;5022647;28;20079;-50
2023/10/26 07:47:04;;;;;;;70.95;21.23;;;8.70;99.90;;;;;;5044751;28;20047;-54
2023/10/26 07:49:31;;;;;;;88.90;23.20;;;9.20;99.90;;;;;;5044162;28;20435;-50
2023/10/26 07:51:57;;;;;;;85.25;21.98;;;8.80;99.90;;;;;;5043420;28;20033;-53
2023/10/26 07:54:22;;;;;;;169.73;26.08;;;8.70;99.90;;;;;;5044728;28;20033;-55
2023/10/26 07:56:48;;;;;;;71.72;22.00;;;8.70;99.90;;;;;;5043084;28;20037;-52
2023/10/26 07:59:14;;;;;;;89.57;21.80;;;9.20;99.90;;;;;;5041544;28;20443;-52
2023/10/26 08:01:39;;;;;;;107.07;23.40;;;9.10;99.90;;;;;;5043542;28;20392;-52
2023/10/26 08:04:05;;;;;;;82.95;22.00;;;8.70;99.90;;;;;;5042914;28;20043;-54
2023/10/26 08:06:31;;;;;;;102.30;23.17;;;9.30;99.90;;;;;;5024192;28;20530;-51
2023/10/26 08:08:58;;;;;;;287.15;54.33;;;9.00;99.90;;;;;;5044092;28;20044;-52
2023/10/26 08:11:24;;;;;;;210.75;26.83;;;8.80;99.90;;;;;;5045794;28;20481;-53
2023/10/26 08:13:50;;;;;;;136.25;22.88;;;9.10;99.90;;;;;;5044258;28;20052;-51
2023/10/26 08:16:20;;;;;;;105.90;22.83;;;9.10;99.90;;;;;;5044504;28;20123;-52
2023/10/26 08:18:45;;;;;;;104.57;24.98;;;9.50;99.90;;;;;;5043784;28;20037;-53
2023/10/26 08:21:12;;;;;;;89.22;24.00;;;9.60;99.90;;;;;;5044260;28;21500;-51
2023/10/26 08:23:38;;;;;;;191.85;49.83;;;9.60;99.90;;;;;;5043822;28;20051;-54
2023/10/26 08:26:09;;;;;;;83.78;24.38;;;9.60;99.90;;;;;;5041807;28;20045;-53
2023/10/26 08:28:35;;;;;;;82.53;22.55;;;9.20;99.90;;;;;;5044469;28;20044;-52
2023/10/26 08:31:01;;;;;;;79.28;25.63;;;9.40;99.90;;;;;;5040757;28;20040;-53
2023/10/26 08:33:31;;;;;;;74.22;23.70;;;9.70;99.90;;;;;;5041406;28;20476;-51
2023/10/26 08:35:57;;;;;;;77.22;26.15;;;9.70;99.90;;;;;;5041066;28;20040;-49
2023/10/26 08:38:23;;;;;;;77.47;27.20;;;9.70;99.90;;;;;;5040790;28;20069;-53
2023/10/26 08:40:55;;;;;;;98.97;47.53;;;10.00;99.90;;;;;;5042066;28;20091;-55
2023/10/26 08:43:22;;;;;;;78.38;27.25;;;9.50;99.90;;;;;;5038530;28;20374;-53
2023/10/26 08:45:48;;;;;;;75.85;26.80;;;10.00;99.90;;;;;;5039394;28;20056;-52
2023/10/26 08:48:18;;;;;;;75.03;28.15;;;9.70;99.90;;;;;;5043680;28;20103;-51
2023/10/26 08:50:45;;;;;;;71.70;46.03;;;9.90;99.90;;;;;;5043126;28;20061;-53
2023/10/26 08:53:11;;;;;;;74.97;27.88;;;10.30;99.90;;;;;;5044669;28;20064;-54
2023/10/26 08:55:39;;;;;;;62.15;27.67;;;10.00;99.90;;;;;;5042787;28;20133;-50
2023/10/26 08:58:05;;;;;;;62.17;28.25;;;10.00;99.90;;;;;;5042840;28;20040;-55
2023/10/26 09:00:31;;;;;;;73.20;28.33;;;10.50;99.90;;;;;;5041923;28;20090;-55
2023/10/26 09:02:56;;;;;;;60.88;28.52;;;10.20;99.90;;;;;;5044323;28;20037;-53
2023/10/26 09:05:22;;;;;;;59.55;28.52;;;10.60;99.90;;;;;;5044188;28;20053;-52
2023/10/26 09:07:49;;;;;;;56.53;28.52;;;10.50;99.90;;;;;;5040701;28;20024;-55
2023/10/26 09:10:31;;;;;;;57.28;41.85;;;11.20;99.90;;;;;;5040682;28;20033;-55
2023/10/26 09:13:03;;;;;;;55.22;27.67;;;11.00;99.90;;;;;;5041547;28;20706;-55
2023/10/26 09:15:29;;;;;;;49.42;26.58;;;11.10;99.90;;;;;;5042323;28;20041;-52
2023/10/26 09:17:57;;;;;;;49.80;27.20;;;11.10;99.90;;;;;;5043169;28;20685;-54
2023/10/26 09:20:24;;;;;;;49.05;27.00;;;11.80;99.90;;;;;;5044110;28;20120;-54
2023/10/26 09:22:50;;;;;;;49.50;27.52;;;11.80;99.90;;;;;;5040237;28;20041;-53
2023/10/26 09:25:17;;;;;;;40.25;24.58;;;11.90;99.90;;;;;;5042844;28;20044;-53
2023/10/26 09:27:45;;;;;;;40.42;25.00;;;11.50;99.90;;;;;;5025963;28;20057;-52
2023/10/26 09:30:28;;;;;;;41.00;25.60;;;11.30;99.90;;;;;;5041915;28;20074;-53
2023/10/26 09:32:55;;;;;;;44.35;25.77;;;11.10;99.90;;;;;;5044621;28;20060;-51
2023/10/26 09:35:32;;;;;;;43.55;37.63;;;11.10;99.90;;;;;;5025887;28;20045;-51
2023/10/26 09:37:58;;;;;;;42.60;26.05;;;11.10;99.90;;;;;;5041928;28;20037;-53
2023/10/26 09:40:26;;;;;;;41.95;25.58;;;11.00;99.90;;;;;;5047004;28;20029;-52
2023/10/26 09:42:52;;;;;;;45.38;27.40;;;11.50;99.90;;;;;;5041912;28;20040;-52
2023/10/26 09:45:19;;;;;;;43.65;25.52;;;11.00;99.90;;;;;;5038872;28;20047;-50
2023/10/26 09:47:45;;;;;;;41.58;26.13;;;11.40;99.90;;;;;;5047226;28;20041;-53
2023/10/26 09:50:11;;;;;;;45.55;26.85;;;11.30;99.90;;;;;;5048375;28;20041;-51
2023/10/26 09:52:38;;;;;;;47.88;27.52;;;11.60;99.90;;;;;;5050243;28;20040;-53
2023/10/26 09:55:07;;;;;;;42.03;26.02;;;11.50;99.90;;;;;;5050460;28;20044;-54
2023/10/26 09:57:36;;;;;;;42.92;26.15;;;11.30;99.90;;;;;;5051907;28;20041;-50
2023/10/26 10:00:08;;;;;;;40.90;25.63;;;11.80;99.90;;;;;;5018277;28;20045;-54
2023/10/26 10:02:33;;;;;;;36.90;32.80;;;11.70;99.90;;;;;;5053188;28;20112;-54
2023/10/26 10:04:59;;;;;;;32.78;22.55;;;11.70;99.90;;;;;;5034878;28;20128;-53
2023/10/26 10:07:43;;;;;;;37.53;23.75;;;11.90;99.90;;;;;;5053120;28;20040;-52
2023/10/26 10:10:10;;;;;;;36.47;22.63;;;11.90;99.90;;;;;;5018781;28;20048;-54
2023/10/26 10:12:37;;;;;;;35.97;23.48;;;11.90;99.90;;;;;;5053550;28;20069;-51
2023/10/26 10:15:06;;;;;;;35.58;23.05;;;11.80;99.90;;;;;;5053107;28;20036;-51
2023/10/26 10:17:44;;;;;;;37.63;23.85;;;12.10;99.90;;;;;;5053514;28;20119;-53
2023/10/26 10:20:19;;;;;;;35.30;31.30;;;11.80;99.90;;;;;;5052604;28;20059;-56
2023/10/26 10:22:48;;;;;;;34.20;30.60;;;12.30;99.90;;;;;;5052903;28;20295;-52
2023/10/26 10:25:17;;;;;;;34.72;31.05;;;12.10;99.90;;;;;;5052697;28;20049;-53
2023/10/26 10:27:49;;;;;;;33.65;23.25;;;12.10;99.90;;;;;;5053373;28;20040;-54
2023/10/26 10:30:19;;;;;;;36.55;22.70;;;12.40;99.90;;;;;;5035684;28;20445;-51
2023/10/26 10:32:45;;;;;;;31.75;22.45;;;12.40;99.90;;;;;;5053282;28;20037;-54
2023/10/26 10:35:21;;;;;;;27.92;21.40;;;12.90;99.90;;;;;;5053664;28;20035;-54
2023/10/26 10:38:12;;;;;;;27.23;20.83;;;12.90;99.90;;;;;;5051922;28;20094;-51
2023/10/26 10:40:54;;;;;;;28.45;21.55;;;13.10;99.90;;;;;;5050982;28;20048;-52
2023/10/26 10:43:40;;;;;;;27.25;20.98;;;13.20;99.90;;;;;;5044129;28;20041;-56
2023/10/26 10:46:27;;;;;;;25.83;20.10;;;13.00;99.90;;;;;;5049844;28;20053;-51
2023/10/26 10:48:57;;;;;;;25.40;20.45;;;13.20;99.90;;;;;;5050712;28;20040;-56
2023/10/26 10:51:34;;;;;;;26.67;20.45;;;13.30;99.90;;;;;;5045246;28;20481;-52
2023/10/26 10:54:01;;;;;;;27.05;19.17;;;13.50;99.90;;;;;;5048217;28;20113;-57
2023/10/26 10:56:27;;;;;;;23.17;19.23;;;13.60;99.90;;;;;;5051254;28;20049;-52
2023/10/26 10:58:55;;;;;;;26.05;19.02;;;13.40;99.90;;;;;;5050378;28;20099;-53
2023/10/26 11:01:21;;;;;;;26.17;19.55;;;13.50;99.90;;;;;;5050980;28;20449;-54
2023/10/26 11:03:48;;;;;;;24.27;19.80;;;13.40;99.90;;;;;;5050533;28;20155;-50
2023/10/26 11:06:16;;;;;;;28.75;19.83;;;13.50;99.90;;;;;;5050687;28;20389;-53
2023/10/26 11:08:42;;;;;;;26.30;18.67;;;13.60;99.90;;;;;;5049758;28;20041;-57
2023/10/26 11:11:07;;;;;;;23.60;19.25;;;13.40;99.90;;;;;;5047840;28;20059;-56
2023/10/26 11:13:33;;;;;;;23.85;18.67;;;13.20;99.90;;;;;;5030571;28;20447;-52
2023/10/26 11:15:59;;;;;;;24.52;18.95;;;13.10;99.90;;;;;;5049479;28;20458;-55
2023/10/26 11:18:25;;;;;;;23.58;18.52;;;13.20;99.90;;;;;;5050380;28;20033;-50
2023/10/26 11:20:50;;;;;;;24.40;18.63;;;13.50;99.90;;;;;;5050273;28;20045;-53
2023/10/26 11:23:21;;;;;;;22.40;18.58;;;13.80;99.90;;;;;;5051345;28;20472;-54
2023/10/26 11:25:46;;;;;;;22.98;17.55;;;14.20;99.90;;;;;;5043770;28;20047;-56
2023/10/26 11:28:12;;;;;;;23.30;17.58;;;14.10;99.90;;;;;;5049123;28;20115;-52
2023/10/26 11:30:49;;;;;;;20.52;18.35;;;14.30;99.90;;;;;;5051501;28;21448;-53
2023/10/26 11:33:35;;;;;;;21.92;16.65;;;14.30;99.90;;;;;;5051258;28;20048;-55
2023/10/26 11:36:09;;;;;;;20.17;15.07;;;14.00;99.90;;;;;;5050265;28;20033;-55
2023/10/26 11:38:35;;;;;;;19.40;14.93;;;13.80;99.90;;;;;;5052772;28;20075;-55
2023/10/26 11:41:01;;;;;;;21.27;14.60;;;13.60;99.90;;;;;;5052388;28;20041;-50
2023/10/26 11:43:36;;;;;;;20.83;14.48;;;13.50;99.90;;;;;;5050677;28;20048;-53
2023/10/26 11:46:05;;;;;;;19.45;14.75;;;13.30;99.90;;;;;;5051292;28;20557;-52
2023/10/26 11:48:32;;;;;;;19.42;14.60;;;13.20;99.90;;;;;;5050636;28;20048;-53
2023/10/26 11:50:58;;;;;;;20.05;17.95;;;13.20;99.90;;;;;;5051811;28;20044;-51
2023/10/26 11:53:26;;;;;;;21.50;15.82;;;13.20;99.90;;;;;;5051229;28;20041;-56
2023/10/26 11:55:52;;;;;;;20.73;15.15;;;13.10;99.90;;;;;;5051690;28;20455;-55
2023/10/26 11:58:18;;;;;;;19.63;17.58;;;13.20;99.90;;;;;;5050549;28;20072;-53
2023/10/26 12:00:44;;;;;;;20.25;18.10;;;13.30;99.90;;;;;;5051283;28;20120;-54
2023/10/26 12:03:10;;;;;;;21.35;15.05;;;13.20;99.90;;;;;;5051853;28;20040;-52
2023/10/26 12:05:36;;;;;;;22.77;16.10;;;13.30;99.90;;;;;;5033793;28;20045;-49
2023/10/26 12:08:02;;;;;;;19.63;17.02;;;13.50;99.90;;;;;;5051757;28;20025;-53
2023/10/26 12:10:28;;;;;;;21.40;17.88;;;13.60;99.90;;;;;;5051468;28;20083;-51
2023/10/26 12:12:57;;;;;;;18.73;16.65;;;13.90;99.90;;;;;;5033874;28;20041;-51
2023/10/26 12:15:22;;;;;;;19.45;16.60;;;14.10;99.90;;;;;;5050019;28;20088;-53
2023/10/26 12:17:49;;;;;;;20.10;15.38;;;14.20;99.90;;;;;;5016396;28;20041;-53
2023/10/26 12:20:14;;;;;;;20.50;15.18;;;14.30;99.90;;;;;;5050179;28;20514;-53
2023/10/26 12:22:41;;;;;;;18.85;14.63;;;14.50;99.90;;;;;;5050475;28;20116;-54
2023/10/26 12:25:07;;;;;;;21.35;16.45;;;14.40;99.90;;;;;;5033272;28;20040;-55
2023/10/26 12:27:34;;;;;;;16.63;14.35;;;14.60;99.90;;;;;;5051274;28;20029;-55
2023/10/26 12:30:00;;;;;;;15.68;14.07;;;14.80;99.90;;;;;;5050571;28;20086;-54